sensor_id;sensor_type;location;lat;lon;timestamp;pressure;altitude;pressure_sealevel;temperature;humidity
77299;BME280;66361;52.034;20.656;2023-09-19T00:02:20;99166.72;;;17.67;100.00
77299;BME280;66361;52.034;20.656;2023-09-19T00:06:23;99169.06;;;17.70;100.00
77299;BME280;66361;52.034;20.656;2023-09-19T00:10:28;99165.91;;;17.66;100.00
77299;BME280;66361;52.034;20.656;2023-09-19T00:14:32;99167.72;;;17.66;100.00
77299;BME280;66361;52.034;20.656;2023-09-19T00:18:38;99175.91;;;17.64;100.00
77299;BME280;66361;52.034;20.656;2023-09-19T00:22:46;99174.06;;;17.65;100.00
77299;BME280;66361;52.034;20.656;2023-09-19T00:26:49;99157.25;;;17.64;100.00
77299;BME280;66361;52.034;20.656;2023-09-19T00:30:52;99167.22;;;17.62;100.00
77299;BME280;66361;52.034;20.656;2023-09-19T00:34:59;99162.69;;;17.55;100.00
77299;BME280;66361;52.034;20.656;2023-09-19T00:39:02;99145.50;;;17.49;100.00
77299;BME280;66361;52.034;20.656;2023-09-19T00:43:08;99148.16;;;17.41;100.00
77299;BME280;66361;52.034;20.656;2023-09-19T00:47:12;99151.63;;;17.33;100.00
77299;BME280;66361;52.034;20.656;2023-09-19T00:51:21;99149.97;;;17.32;100.00
77299;BME280;66361;52.034;20.656;2023-09-19T00:55:25;99152.13;;;17.29;100.00
77299;BME280;66361;52.034;20.656;2023-09-19T00:59:29;99141.94;;;17.24;100.00
77299;BME280;66361;52.034;20.656;2023-09-19T01:03:35;99140.63;;;17.28;100.00
77299;BME280;66361;52.034;20.656;2023-09-19T01:07:41;99140.63;;;17.36;100.00
77299;BME280;66361;52.034;20.656;2023-09-19T01:11:47;99131.66;;;17.37;100.00
77299;BME280;66361;52.034;20.656;2023-09-19T01:16:01;99120.31;;;17.43;100.00
77299;BME280;66361;52.034;20.656;2023-09-19T01:20:24;99112.97;;;17.37;100.00
77299;BME280;66361;52.034;20.656;2023-09-19T01:25:04;99119.31;;;17.44;100.00
77299;BME280;66361;52.034;20.656;2023-09-19T01:29:34;99109.81;;;17.50;100.00
77299;BME280;66361;52.034;20.656;2023-09-19T01:33:59;99103.31;;;17.53;100.00
77299;BME280;66361;52.034;20.656;2023-09-19T01:38:03;99103.84;;;17.56;99.94
77299;BME280;66361;52.034;20.656;2023-09-19T01:42:11;99101.00;;;17.58;99.45
77299;BME280;66361;52.034;20.656;2023-09-19T01:46:25;99101.69;;;17.60;99.17
77299;BME280;66361;52.034;20.656;2023-09-19T01:50:34;99103.19;;;17.62;99.00
77299;BME280;66361;52.034;20.656;2023-09-19T01:54:46;99089.19;;;17.60;99.42
77299;BME280;66361;52.034;20.656;2023-09-19T01:58:56;99086.28;;;17.54;99.05
77299;BME280;66361;52.034;20.656;2023-09-19T02:03:03;99086.47;;;17.52;99.00
77299;BME280;66361;52.034;20.656;2023-09-19T02:07:08;99083.81;;;17.44;99.48
77299;BME280;66361;52.034;20.656;2023-09-19T02:11:12;99087.13;;;17.46;99.41
77299;BME280;66361;52.034;20.656;2023-09-19T02:15:16;99083.44;;;17.39;99.60
77299;BME280;66361;52.034;20.656;2023-09-19T02:19:19;99079.97;;;17.47;99.43
77299;BME280;66361;52.034;20.656;2023-09-19T02:23:24;99081.78;;;17.46;99.07
77299;BME280;66361;52.034;20.656;2023-09-19T02:27:27;99072.97;;;17.54;98.53
77299;BME280;66361;52.034;20.656;2023-09-19T02:31:30;99070.31;;;17.46;98.71
77299;BME280;66361;52.034;20.656;2023-09-19T02:35:33;99061.47;;;17.37;99.01
77299;BME280;66361;52.034;20.656;2023-09-19T02:39:39;99056.47;;;17.34;98.63
77299;BME280;66361;52.034;20.656;2023-09-19T02:43:42;99051.97;;;17.26;99.15
77299;BME280;66361;52.034;20.656;2023-09-19T02:47:46;99056.94;;;17.21;99.21
77299;BME280;66361;52.034;20.656;2023-09-19T02:51:49;99055.97;;;17.30;98.49
77299;BME280;66361;52.034;20.656;2023-09-19T02:55:54;99042.63;;;17.22;99.46
77299;BME280;66361;52.034;20.656;2023-09-19T02:59:57;99046.28;;;17.29;98.71
77299;BME280;66361;52.034;20.656;2023-09-19T03:04:02;99036.09;;;17.17;99.26
77299;BME280;66361;52.034;20.656;2023-09-19T03:08:07;99033.41;;;17.09;99.93
77299;BME280;66361;52.034;20.656;2023-09-19T03:12:11;99035.41;;;16.99;100.00
77299;BME280;66361;52.034;20.656;2023-09-19T03:16:17;99030.25;;;16.89;100.00
77299;BME280;66361;52.034;20.656;2023-09-19T03:20:23;99036.03;;;16.76;100.00
77299;BME280;66361;52.034;20.656;2023-09-19T03:24:27;99034.03;;;16.70;100.00
77299;BME280;66361;52.034;20.656;2023-09-19T03:28:33;99034.53;;;16.74;100.00
77299;BME280;66361;52.034;20.656;2023-09-19T03:32:36;99037.72;;;16.93;100.00
77299;BME280;66361;52.034;20.656;2023-09-19T03:36:39;99033.41;;;17.09;100.00
77299;BME280;66361;52.034;20.656;2023-09-19T03:40:43;99026.97;;;17.19;100.00
77299;BME280;66361;52.034;20.656;2023-09-19T03:44:48;99022.44;;;17.20;100.00
77299;BME280;66361;52.034;20.656;2023-09-19T03:48:50;99016.09;;;17.13;100.00
77299;BME280;66361;52.034;20.656;2023-09-19T03:52:56;99021.25;;;16.98;100.00
77299;BME280;66361;52.034;20.656;2023-09-19T03:57:00;99017.22;;;16.86;100.00
77299;BME280;66361;52.034;20.656;2023-09-19T04:01:06;99015.03;;;16.73;100.00
77299;BME280;66361;52.034;20.656;2023-09-19T04:05:09;99017.03;;;16.71;100.00
77299;BME280;66361;52.034;20.656;2023-09-19T04:09:13;99012.22;;;16.83;100.00
77299;BME280;66361;52.034;20.656;2023-09-19T04:13:16;99005.22;;;16.90;100.00
77299;BME280;66361;52.034;20.656;2023-09-19T04:17:21;98996.06;;;16.84;100.00
77299;BME280;66361;52.034;20.656;2023-09-19T04:21:25;99000.72;;;16.74;100.00
77299;BME280;66361;52.034;20.656;2023-09-19T04:25:29;98997.56;;;16.71;100.00
77299;BME280;66361;52.034;20.656;2023-09-19T04:29:33;98991.38;;;16.62;100.00
77299;BME280;66361;52.034;20.656;2023-09-19T04:33:38;98996.00;;;16.52;100.00
77299;BME280;66361;52.034;20.656;2023-09-19T04:37:43;98989.59;;;16.45;100.00
77299;BME280;66361;52.034;20.656;2023-09-19T04:41:46;98993.78;;;16.47;100.00
77299;BME280;66361;52.034;20.656;2023-09-19T04:45:49;98987.19;;;16.60;100.00
77299;BME280;66361;52.034;20.656;2023-09-19T04:49:54;98990.88;;;16.75;100.00
77299;BME280;66361;52.034;20.656;2023-09-19T04:53:58;98985.09;;;16.95;100.00
77299;BME280;66361;52.034;20.656;2023-09-19T04:58:04;98994.44;;;17.24;100.00
77299;BME280;66361;52.034;20.656;2023-09-19T05:02:07;98996.28;;;17.48;100.00
77299;BME280;66361;52.034;20.656;2023-09-19T05:06:15;98989.94;;;17.65;99.66
77299;BME280;66361;52.034;20.656;2023-09-19T05:10:19;98993.44;;;17.73;98.88
77299;BME280;66361;52.034;20.656;2023-09-19T05:14:23;98992.44;;;17.82;98.43
77299;BME280;66361;52.034;20.656;2023-09-19T05:18:26;98988.06;;;17.89;98.46
77299;BME280;66361;52.034;20.656;2023-09-19T05:22:30;98982.88;;;17.96;97.91
77299;BME280;66361;52.034;20.656;2023-09-19T05:26:34;98983.97;;;18.10;97.51
77299;BME280;66361;52.034;20.656;2023-09-19T05:30:37;98989.13;;;18.19;97.36
77299;BME280;66361;52.034;20.656;2023-09-19T05:34:41;98981.22;;;18.34;96.13
77299;BME280;66361;52.034;20.656;2023-09-19T05:38:46;98982.91;;;18.66;94.34
77299;BME280;66361;52.034;20.656;2023-09-19T05:42:51;98981.06;;;18.97;92.75
77299;BME280;66361;52.034;20.656;2023-09-19T05:46:54;98971.50;;;19.25;91.54
77299;BME280;66361;52.034;20.656;2023-09-19T05:50:58;98972.09;;;19.50;88.99
77299;BME280;66361;52.034;20.656;2023-09-19T05:55:07;98982.41;;;19.61;90.41
77299;BME280;66361;52.034;20.656;2023-09-19T05:59:10;98997.47;;;19.77;91.44
77299;BME280;66361;52.034;20.656;2023-09-19T06:03:13;98998.78;;;20.25;85.91
77299;BME280;66361;52.034;20.656;2023-09-19T06:07:17;99003.38;;;20.31;83.96
77299;BME280;66361;52.034;20.656;2023-09-19T06:11:20;99014.56;;;20.35;86.01
77299;BME280;66361;52.034;20.656;2023-09-19T06:15:26;99008.66;;;20.39;85.30
77299;BME280;66361;52.034;20.656;2023-09-19T06:19:29;99017.16;;;20.57;83.42
77299;BME280;66361;52.034;20.656;2023-09-19T06:23:33;99020.59;;;20.87;84.01
77299;BME280;66361;52.034;20.656;2023-09-19T06:27:38;99020.09;;;21.34;81.12
77299;BME280;66361;52.034;20.656;2023-09-19T06:31:42;99022.16;;;22.37;75.85
77299;BME280;66361;52.034;20.656;2023-09-19T06:35:46;99031.38;;;22.62;72.10
77299;BME280;66361;52.034;20.656;2023-09-19T06:39:49;99031.59;;;23.21;71.93
77299;BME280;66361;52.034;20.656;2023-09-19T06:43:53;99035.19;;;23.68;68.78
77299;BME280;66361;52.034;20.656;2023-09-19T06:47:56;99025.84;;;23.77;67.48
77299;BME280;66361;52.034;20.656;2023-09-19T06:52:02;99037.03;;;24.13;65.87
77299;BME280;66361;52.034;20.656;2023-09-19T06:56:08;99040.34;;;24.15;66.13
77299;BME280;66361;52.034;20.656;2023-09-19T07:00:16;99045.78;;;23.76;66.80
77299;BME280;66361;52.034;20.656;2023-09-19T07:04:20;99056.81;;;23.13;69.73
77299;BME280;66361;52.034;20.656;2023-09-19T07:08:23;99053.94;;;23.15;67.57
77299;BME280;66361;52.034;20.656;2023-09-19T07:12:26;99056.88;;;23.33;67.49
77299;BME280;66361;52.034;20.656;2023-09-19T07:16:30;99066.22;;;23.37;68.19
77299;BME280;66361;52.034;20.656;2023-09-19T07:20:33;99068.91;;;23.50;68.50
77299;BME280;66361;52.034;20.656;2023-09-19T07:24:36;99080.59;;;23.90;67.04
77299;BME280;66361;52.034;20.656;2023-09-19T07:28:40;99076.19;;;24.29;64.64
77299;BME280;66361;52.034;20.656;2023-09-19T07:32:45;99080.63;;;23.10;67.76
77299;BME280;66361;52.034;20.656;2023-09-19T07:36:49;99078.47;;;23.53;67.66
77299;BME280;66361;52.034;20.656;2023-09-19T07:40:51;99081.81;;;23.01;69.73
77299;BME280;66361;52.034;20.656;2023-09-19T07:44:54;99100.72;;;23.14;68.64
77299;BME280;66361;52.034;20.656;2023-09-19T07:49:00;99103.47;;;22.86;70.87
77299;BME280;66361;52.034;20.656;2023-09-19T07:53:03;99099.44;;;22.62;71.84
77299;BME280;66361;52.034;20.656;2023-09-19T07:57:06;99103.03;;;22.42;72.57
77299;BME280;66361;52.034;20.656;2023-09-19T08:01:10;99112.94;;;22.41;73.60
77299;BME280;66361;52.034;20.656;2023-09-19T08:05:16;99116.19;;;22.30;75.18
77299;BME280;66361;52.034;20.656;2023-09-19T08:09:20;99119.09;;;22.29;75.57
77299;BME280;66361;52.034;20.656;2023-09-19T08:13:26;99118.13;;;22.15;75.41
77299;BME280;66361;52.034;20.656;2023-09-19T08:17:34;99120.13;;;21.85;77.33
77299;BME280;66361;52.034;20.656;2023-09-19T08:21:38;99110.56;;;21.76;76.77
77299;BME280;66361;52.034;20.656;2023-09-19T08:25:41;99112.16;;;21.49;78.75
77299;BME280;66361;52.034;20.656;2023-09-19T08:29:44;99105.03;;;20.91;82.23
77299;BME280;66361;52.034;20.656;2023-09-19T08:33:48;99113.69;;;20.87;83.07
77299;BME280;66361;52.034;20.656;2023-09-19T08:37:54;99122.28;;;20.53;84.49
77299;BME280;66361;52.034;20.656;2023-09-19T08:41:59;99122.13;;;20.31;87.01
77299;BME280;66361;52.034;20.656;2023-09-19T08:46:09;99112.75;;;19.98;95.19
77299;BME280;66361;52.034;20.656;2023-09-19T08:50:19;99114.75;;;19.59;100.00
77299;BME280;66361;52.034;20.656;2023-09-19T08:54:29;99129.88;;;19.52;100.00
77299;BME280;66361;52.034;20.656;2023-09-19T08:58:41;99143.72;;;19.24;100.00
77299;BME280;66361;52.034;20.656;2023-09-19T09:02:47;99137.56;;;19.16;100.00
77299;BME280;66361;52.034;20.656;2023-09-19T09:06:51;99128.69;;;19.15;100.00
77299;BME280;66361;52.034;20.656;2023-09-19T09:10:58;99139.44;;;19.38;100.00
77299;BME280;66361;52.034;20.656;2023-09-19T09:15:03;99151.28;;;19.44;100.00
77299;BME280;66361;52.034;20.656;2023-09-19T09:19:06;99157.22;;;19.31;100.00
77299;BME280;66361;52.034;20.656;2023-09-19T09:23:09;99166.34;;;19.14;100.00
77299;BME280;66361;52.034;20.656;2023-09-19T09:27:15;99175.03;;;19.08;100.00
77299;BME280;66361;52.034;20.656;2023-09-19T09:31:25;99182.09;;;19.01;100.00
77299;BME280;66361;52.034;20.656;2023-09-19T09:35:28;99183.78;;;19.02;100.00
77299;BME280;66361;52.034;20.656;2023-09-19T09:39:31;99189.75;;;19.04;100.00
77299;BME280;66361;52.034;20.656;2023-09-19T09:43:39;99186.94;;;19.05;100.00
77299;BME280;66361;52.034;20.656;2023-09-19T09:47:45;99194.94;;;19.13;100.00
77299;BME280;66361;52.034;20.656;2023-09-19T09:52:00;99201.41;;;19.19;100.00
77299;BME280;66361;52.034;20.656;2023-09-19T09:56:12;99198.22;;;19.23;100.00
77299;BME280;66361;52.034;20.656;2023-09-19T10:00:18;99197.81;;;19.34;100.00
77299;BME280;66361;52.034;20.656;2023-09-19T10:04:28;99209.41;;;19.66;100.00
77299;BME280;66361;52.034;20.656;2023-09-19T10:08:38;99194.34;;;19.88;100.00
77299;BME280;66361;52.034;20.656;2023-09-19T10:12:45;99196.44;;;20.00;100.00
77299;BME280;66361;52.034;20.656;2023-09-19T10:16:53;99197.09;;;20.02;100.00
77299;BME280;66361;52.034;20.656;2023-09-19T10:21:02;99185.72;;;20.38;100.00
77299;BME280;66361;52.034;20.656;2023-09-19T10:25:08;99182.44;;;20.50;99.02
77299;BME280;66361;52.034;20.656;2023-09-19T10:29:13;99182.81;;;20.62;100.00
77299;BME280;66361;52.034;20.656;2023-09-19T10:33:21;99179.31;;;20.76;96.29
77299;BME280;66361;52.034;20.656;2023-09-19T10:37:27;99186.81;;;20.81;96.18
77299;BME280;66361;52.034;20.656;2023-09-19T10:41:34;99201.25;;;20.94;98.27
77299;BME280;66361;52.034;20.656;2023-09-19T10:45:40;99209.56;;;21.14;98.88
77299;BME280;66361;52.034;20.656;2023-09-19T10:49:46;99206.41;;;21.25;96.95
77299;BME280;66361;52.034;20.656;2023-09-19T10:53:52;99213.94;;;21.30;93.84
77299;BME280;66361;52.034;20.656;2023-09-19T10:57:57;99209.06;;;21.25;93.62
77299;BME280;66361;52.034;20.656;2023-09-19T11:02:17;99225.84;;;21.12;95.36
77299;BME280;66361;52.034;20.656;2023-09-19T11:06:21;99219.00;;;20.95;96.66
77299;BME280;66361;52.034;20.656;2023-09-19T11:10:46;99211.25;;;21.00;96.96
77299;BME280;66361;52.034;20.656;2023-09-19T11:14:49;99225.13;;;21.04;95.87
77299;BME280;66361;52.034;20.656;2023-09-19T11:18:54;99223.34;;;20.96;98.40
77299;BME280;66361;52.034;20.656;2023-09-19T11:23:26;99226.22;;;20.95;95.13
77299;BME280;66361;52.034;20.656;2023-09-19T11:27:29;99230.56;;;20.81;96.48
77299;BME280;66361;52.034;20.656;2023-09-19T11:31:44;99232.31;;;20.74;99.80
77299;BME280;66361;52.034;20.656;2023-09-19T11:36:01;99243.41;;;20.71;99.00
77299;BME280;66361;52.034;20.656;2023-09-19T11:40:09;99238.31;;;20.39;98.70
77299;BME280;66361;52.034;20.656;2023-09-19T11:44:34;99243.47;;;20.48;99.51
77299;BME280;66361;52.034;20.656;2023-09-19T11:48:43;99238.63;;;20.44;100.00
77299;BME280;66361;52.034;20.656;2023-09-19T11:52:50;99241.19;;;20.60;99.83
77299;BME280;66361;52.034;20.656;2023-09-19T11:56:55;99245.66;;;20.45;99.12
77299;BME280;66361;52.034;20.656;2023-09-19T12:00:59;99249.84;;;20.62;100.00
77299;BME280;66361;52.034;20.656;2023-09-19T12:05:06;99252.88;;;20.44;100.00
77299;BME280;66361;52.034;20.656;2023-09-19T12:09:12;99259.47;;;20.34;100.00
77299;BME280;66361;52.034;20.656;2023-09-19T12:13:20;99257.31;;;20.29;100.00
77299;BME280;66361;52.034;20.656;2023-09-19T12:17:23;99258.06;;;20.23;100.00
77299;BME280;66361;52.034;20.656;2023-09-19T12:21:28;99252.59;;;20.31;100.00
77299;BME280;66361;52.034;20.656;2023-09-19T12:25:41;99255.84;;;20.26;100.00
77299;BME280;66361;52.034;20.656;2023-09-19T12:29:49;99255.13;;;20.33;99.70
77299;BME280;66361;52.034;20.656;2023-09-19T12:33:56;99257.25;;;20.37;100.00
77299;BME280;66361;52.034;20.656;2023-09-19T12:38:00;99262.94;;;20.42;100.00
77299;BME280;66361;52.034;20.656;2023-09-19T12:42:07;99259.56;;;20.40;100.00
77299;BME280;66361;52.034;20.656;2023-09-19T12:46:12;99260.84;;;20.29;100.00
77299;BME280;66361;52.034;20.656;2023-09-19T12:50:21;99259.53;;;20.25;100.00
77299;BME280;66361;52.034;20.656;2023-09-19T12:54:38;99254.00;;;20.27;100.00
77299;BME280;66361;52.034;20.656;2023-09-19T12:58:49;99247.59;;;20.28;100.00
77299;BME280;66361;52.034;20.656;2023-09-19T13:03:14;99252.72;;;20.46;100.00
77299;BME280;66361;52.034;20.656;2023-09-19T13:07:41;99252.06;;;20.58;100.00
77299;BME280;66361;52.034;20.656;2023-09-19T13:11:48;99251.69;;;20.61;100.00
77299;BME280;66361;52.034;20.656;2023-09-19T13:15:53;99251.69;;;20.61;100.00
77299;BME280;66361;52.034;20.656;2023-09-19T13:19:58;99261.88;;;20.66;100.00
77299;BME280;66361;52.034;20.656;2023-09-19T13:24:18;99264.78;;;20.79;100.00
77299;BME280;66361;52.034;20.656;2023-09-19T13:28:21;99268.09;;;20.66;100.00
77299;BME280;66361;52.034;20.656;2023-09-19T13:32:25;99266.03;;;20.68;99.26
77299;BME280;66361;52.034;20.656;2023-09-19T13:36:30;99271.03;;;20.57;100.00
77299;BME280;66361;52.034;20.656;2023-09-19T13:40:33;99275.78;;;20.47;100.00
77299;BME280;66361;52.034;20.656;2023-09-19T13:44:37;99281.16;;;20.47;100.00
77299;BME280;66361;52.034;20.656;2023-09-19T13:48:42;99283.22;;;20.37;99.18
77299;BME280;66361;52.034;20.656;2023-09-19T13:52:46;99276.38;;;20.34;97.13
77299;BME280;66361;52.034;20.656;2023-09-19T13:56:49;99292.09;;;20.37;98.26
77299;BME280;66361;52.034;20.656;2023-09-19T14:00:52;99286.28;;;20.34;96.36
77299;BME280;66361;52.034;20.656;2023-09-19T14:04:56;99280.63;;;20.51;94.25
77299;BME280;66361;52.034;20.656;2023-09-19T14:09:01;99280.09;;;20.56;90.54
77299;BME280;66361;52.034;20.656;2023-09-19T14:13:05;99293.03;;;20.52;91.40
77299;BME280;66361;52.034;20.656;2023-09-19T14:17:08;99290.34;;;20.52;90.40
77299;BME280;66361;52.034;20.656;2023-09-19T14:21:12;99284.19;;;20.66;91.81
77299;BME280;66361;52.034;20.656;2023-09-19T14:25:17;99294.25;;;20.64;91.66
77299;BME280;66361;52.034;20.656;2023-09-19T14:29:24;99289.63;;;20.73;91.45
77299;BME280;66361;52.034;20.656;2023-09-19T14:33:27;99297.78;;;20.79;90.99
77299;BME280;66361;52.034;20.656;2023-09-19T14:37:30;99296.41;;;20.84;89.21
77299;BME280;66361;52.034;20.656;2023-09-19T14:41:35;99307.44;;;20.89;89.84
77299;BME280;66361;52.034;20.656;2023-09-19T14:45:38;99301.75;;;20.84;87.94
77299;BME280;66361;52.034;20.656;2023-09-19T14:49:42;99309.94;;;20.90;90.51
77299;BME280;66361;52.034;20.656;2023-09-19T14:53:46;99306.66;;;20.80;88.21
77299;BME280;66361;52.034;20.656;2023-09-19T14:57:52;99310.91;;;20.74;87.52
77299;BME280;66361;52.034;20.656;2023-09-19T15:01:58;99309.44;;;20.72;90.91
77299;BME280;66361;52.034;20.656;2023-09-19T15:06:03;99303.59;;;20.68;91.11
77299;BME280;66361;52.034;20.656;2023-09-19T15:10:07;99300.16;;;20.60;92.99
77299;BME280;66361;52.034;20.656;2023-09-19T15:14:13;99304.16;;;20.64;88.56
77299;BME280;66361;52.034;20.656;2023-09-19T15:18:16;99308.47;;;20.65;88.33
77299;BME280;66361;52.034;20.656;2023-09-19T15:22:19;99314.03;;;20.63;90.62
77299;BME280;66361;52.034;20.656;2023-09-19T15:26:24;99313.56;;;20.60;87.89
77299;BME280;66361;52.034;20.656;2023-09-19T15:30:28;99311.59;;;20.54;88.04
77299;BME280;66361;52.034;20.656;2023-09-19T15:34:32;99308.63;;;20.49;89.35
77299;BME280;66361;52.034;20.656;2023-09-19T15:38:56;99313.19;;;20.40;89.49
77299;BME280;66361;52.034;20.656;2023-09-19T15:43:01;99320.38;;;20.40;91.40
77299;BME280;66361;52.034;20.656;2023-09-19T15:47:06;99318.44;;;20.34;92.87
77299;BME280;66361;52.034;20.656;2023-09-19T15:51:10;99317.00;;;20.23;92.89
77299;BME280;66361;52.034;20.656;2023-09-19T15:55:14;99323.41;;;20.14;94.12
77299;BME280;66361;52.034;20.656;2023-09-19T15:59:18;99327.44;;;20.10;89.54
77299;BME280;66361;52.034;20.656;2023-09-19T16:03:22;99337.38;;;20.01;90.94
77299;BME280;66361;52.034;20.656;2023-09-19T16:07:27;99343.47;;;19.87;93.74
77299;BME280;66361;52.034;20.656;2023-09-19T16:11:32;99339.47;;;19.83;93.12
77299;BME280;66361;52.034;20.656;2023-09-19T16:15:42;99349.44;;;19.66;93.61
77299;BME280;66361;52.034;20.656;2023-09-19T16:19:48;99354.47;;;19.61;90.17
77299;BME280;66361;52.034;20.656;2023-09-19T16:23:51;99361.19;;;19.57;88.28
77299;BME280;66361;52.034;20.656;2023-09-19T16:27:55;99373.06;;;19.39;90.25
77299;BME280;66361;52.034;20.656;2023-09-19T16:31:58;99377.13;;;19.26;88.66
77299;BME280;66361;52.034;20.656;2023-09-19T16:36:07;99376.66;;;19.07;88.06
77299;BME280;66361;52.034;20.656;2023-09-19T16:40:10;99379.69;;;18.88;88.93
77299;BME280;66361;52.034;20.656;2023-09-19T16:44:13;99381.84;;;18.76;86.77
77299;BME280;66361;52.034;20.656;2023-09-19T16:48:16;99390.19;;;18.57;85.34
77299;BME280;66361;52.034;20.656;2023-09-19T16:52:21;99391.31;;;18.46;83.17
77299;BME280;66361;52.034;20.656;2023-09-19T16:56:25;99395.63;;;18.31;83.00
77299;BME280;66361;52.034;20.656;2023-09-19T17:00:29;99398.44;;;18.13;83.78
77299;BME280;66361;52.034;20.656;2023-09-19T17:04:32;99411.34;;;17.92;87.34
77299;BME280;66361;52.034;20.656;2023-09-19T17:08:36;99414.06;;;17.66;89.28
77299;BME280;66361;52.034;20.656;2023-09-19T17:12:40;99410.19;;;17.35;88.71
77299;BME280;66361;52.034;20.656;2023-09-19T17:16:44;99412.53;;;17.12;88.62
77299;BME280;66361;52.034;20.656;2023-09-19T17:20:47;99420.34;;;16.88;89.28
77299;BME280;66361;52.034;20.656;2023-09-19T17:24:51;99423.63;;;16.64;91.76
77299;BME280;66361;52.034;20.656;2023-09-19T17:28:54;99420.41;;;16.43;92.72
77299;BME280;66361;52.034;20.656;2023-09-19T17:32:58;99431.19;;;16.24;93.97
77299;BME280;66361;52.034;20.656;2023-09-19T17:37:01;99424.81;;;16.07;94.73
77299;BME280;66361;52.034;20.656;2023-09-19T17:41:06;99439.22;;;15.87;96.08
77299;BME280;66361;52.034;20.656;2023-09-19T17:45:10;99446.41;;;15.77;96.55
77299;BME280;66361;52.034;20.656;2023-09-19T17:49:14;99460.16;;;15.63;97.63
77299;BME280;66361;52.034;20.656;2023-09-19T17:53:18;99462.44;;;15.48;98.99
77299;BME280;66361;52.034;20.656;2023-09-19T17:57:23;99464.56;;;15.44;99.98
77299;BME280;66361;52.034;20.656;2023-09-19T18:01:27;99472.84;;;15.41;100.00
77299;BME280;66361;52.034;20.656;2023-09-19T18:05:34;99475.06;;;15.27;100.00
77299;BME280;66361;52.034;20.656;2023-09-19T18:09:37;99476.63;;;15.20;100.00
77299;BME280;66361;52.034;20.656;2023-09-19T18:13:42;99481.09;;;15.00;100.00
77299;BME280;66361;52.034;20.656;2023-09-19T18:17:46;99482.94;;;14.90;100.00
77299;BME280;66361;52.034;20.656;2023-09-19T18:21:50;99487.13;;;14.83;100.00
77299;BME280;66361;52.034;20.656;2023-09-19T18:25:55;99502.63;;;14.78;100.00
77299;BME280;66361;52.034;20.656;2023-09-19T18:30:00;99493.53;;;14.71;100.00
77299;BME280;66361;52.034;20.656;2023-09-19T18:34:03;99496.03;;;14.53;100.00
77299;BME280;66361;52.034;20.656;2023-09-19T18:38:09;99499.63;;;14.42;100.00
77299;BME280;66361;52.034;20.656;2023-09-19T18:42:12;99496.28;;;14.31;100.00
77299;BME280;66361;52.034;20.656;2023-09-19T18:46:17;99510.47;;;14.20;100.00
77299;BME280;66361;52.034;20.656;2023-09-19T18:50:21;99514.63;;;14.13;100.00
77299;BME280;66361;52.034;20.656;2023-09-19T18:54:24;99522.09;;;13.98;100.00
77299;BME280;66361;52.034;20.656;2023-09-19T18:58:28;99518.16;;;13.93;100.00
77299;BME280;66361;52.034;20.656;2023-09-19T19:02:33;99520.19;;;13.80;100.00
77299;BME280;66361;52.034;20.656;2023-09-19T19:06:36;99515.81;;;13.69;100.00
77299;BME280;66361;52.034;20.656;2023-09-19T19:10:39;99525.66;;;13.57;100.00
77299;BME280;66361;52.034;20.656;2023-09-19T19:14:43;99515.00;;;13.48;100.00
77299;BME280;66361;52.034;20.656;2023-09-19T19:18:48;99521.91;;;13.39;100.00
77299;BME280;66361;52.034;20.656;2023-09-19T19:22:51;99522.66;;;13.30;100.00
77299;BME280;66361;52.034;20.656;2023-09-19T19:26:55;99515.25;;;13.24;100.00
77299;BME280;66361;52.034;20.656;2023-09-19T19:30:58;99519.38;;;13.17;100.00
77299;BME280;66361;52.034;20.656;2023-09-19T19:35:03;99523.75;;;13.07;100.00
77299;BME280;66361;52.034;20.656;2023-09-19T19:39:08;99522.25;;;12.93;100.00
77299;BME280;66361;52.034;20.656;2023-09-19T19:43:13;99516.63;;;12.87;100.00
77299;BME280;66361;52.034;20.656;2023-09-19T19:47:16;99519.88;;;12.79;100.00
77299;BME280;66361;52.034;20.656;2023-09-19T19:51:21;99535.66;;;12.70;100.00
77299;BME280;66361;52.034;20.656;2023-09-19T19:55:24;99533.75;;;12.60;100.00
77299;BME280;66361;52.034;20.656;2023-09-19T19:59:28;99531.63;;;12.54;100.00
77299;BME280;66361;52.034;20.656;2023-09-19T20:03:33;99532.22;;;12.47;100.00
77299;BME280;66361;52.034;20.656;2023-09-19T20:07:38;99531.00;;;12.40;100.00
77299;BME280;66361;52.034;20.656;2023-09-19T20:11:41;99532.34;;;12.34;100.00
77299;BME280;66361;52.034;20.656;2023-09-19T20:15:53;99531.41;;;12.24;100.00
77299;BME280;66361;52.034;20.656;2023-09-19T20:19:57;99535.50;;;12.17;100.00
77299;BME280;66361;52.034;20.656;2023-09-19T20:24:03;99539.97;;;12.05;100.00
77299;BME280;66361;52.034;20.656;2023-09-19T20:28:07;99541.50;;;11.97;100.00
77299;BME280;66361;52.034;20.656;2023-09-19T20:32:11;99546.06;;;11.95;100.00
77299;BME280;66361;52.034;20.656;2023-09-19T20:36:19;99550.03;;;11.89;100.00
77299;BME280;66361;52.034;20.656;2023-09-19T20:40:23;99554.72;;;11.86;100.00
77299;BME280;66361;52.034;20.656;2023-09-19T20:44:27;99557.38;;;11.75;100.00
77299;BME280;66361;52.034;20.656;2023-09-19T20:48:31;99559.25;;;11.73;100.00
77299;BME280;66361;52.034;20.656;2023-09-19T20:52:35;99551.81;;;11.66;100.00
77299;BME280;66361;52.034;20.656;2023-09-19T20:56:40;99568.63;;;11.65;100.00
77299;BME280;66361;52.034;20.656;2023-09-19T21:00:43;99558.16;;;11.53;100.00
77299;BME280;66361;52.034;20.656;2023-09-19T21:04:49;99571.13;;;11.45;100.00
77299;BME280;66361;52.034;20.656;2023-09-19T21:08:54;99571.69;;;11.37;100.00
77299;BME280;66361;52.034;20.656;2023-09-19T21:12:59;99572.78;;;11.35;100.00
77299;BME280;66361;52.034;20.656;2023-09-19T21:17:02;99572.78;;;11.35;100.00